sensor_id;sensor_type;location;lat;lon;timestamp;P1;durP1;ratioP1;P2;durP2;ratioP2
3307;SDS011;1666;48.898;9.182;2023-04-03T00:00:36;5.05;;;2.50;;
3307;SDS011;1666;48.898;9.182;2023-04-03T00:03:06;3.72;;;2.40;;
3307;SDS011;1666;48.898;9.182;2023-04-03T00:05:36;9.75;;;2.83;;
3307;SDS011;1666;48.898;9.182;2023-04-03T00:08:07;4.07;;;2.65;;
3307;SDS011;1666;48.898;9.182;2023-04-03T00:10:39;3.55;;;2.40;;
3307;SDS011;1666;48.898;9.182;2023-04-03T00:13:10;4.22;;;2.22;;
3307;SDS011;1666;48.898;9.182;2023-04-03T00:15:40;4.20;;;2.50;;
3307;SDS011;1666;48.898;9.182;2023-04-03T00:18:10;3.47;;;2.55;;
3307;SDS011;1666;48.898;9.182;2023-04-03T00:20:40;5.07;;;2.80;;
3307;SDS011;1666;48.898;9.182;2023-04-03T00:23:10;5.72;;;2.45;;
3307;SDS011;1666;48.898;9.182;2023-04-03T00:25:43;4.18;;;2.60;;
3307;SDS011;1666;48.898;9.182;2023-04-03T00:28:13;4.70;;;2.70;;
3307;SDS011;1666;48.898;9.182;2023-04-03T00:30:43;4.28;;;2.58;;
3307;SDS011;1666;48.898;9.182;2023-04-03T00:33:13;5.05;;;2.80;;
3307;SDS011;1666;48.898;9.182;2023-04-03T00:35:43;3.95;;;2.50;;
3307;SDS011;1666;48.898;9.182;2023-04-03T00:38:13;4.50;;;2.30;;
3307;SDS011;1666;48.898;9.182;2023-04-03T00:40:47;4.05;;;2.22;;
3307;SDS011;1666;48.898;9.182;2023-04-03T00:43:19;3.58;;;2.45;;
3307;SDS011;1666;48.898;9.182;2023-04-03T00:45:53;3.45;;;2.33;;
3307;SDS011;1666;48.898;9.182;2023-04-03T00:48:25;5.57;;;2.35;;
3307;SDS011;1666;48.898;9.182;2023-04-03T00:50:58;4.38;;;3.10;;
3307;SDS011;1666;48.898;9.182;2023-04-03T00:53:29;3.75;;;2.47;;
3307;SDS011;1666;48.898;9.182;2023-04-03T00:56:06;6.03;;;2.80;;
3307;SDS011;1666;48.898;9.182;2023-04-03T00:58:40;5.13;;;2.70;;
3307;SDS011;1666;48.898;9.182;2023-04-03T01:01:16;4.75;;;2.58;;
3307;SDS011;1666;48.898;9.182;2023-04-03T01:03:50;5.95;;;2.97;;
3307;SDS011;1666;48.898;9.182;2023-04-03T01:06:23;4.50;;;2.90;;
3307;SDS011;1666;48.898;9.182;2023-04-03T01:08:57;3.47;;;2.33;;
3307;SDS011;1666;48.898;9.182;2023-04-03T01:11:30;6.53;;;3.25;;
3307;SDS011;1666;48.898;9.182;2023-04-03T01:14:01;3.30;;;2.60;;
3307;SDS011;1666;48.898;9.182;2023-04-03T01:16:32;5.05;;;2.92;;
3307;SDS011;1666;48.898;9.182;2023-04-03T01:19:02;4.78;;;2.50;;
3307;SDS011;1666;48.898;9.182;2023-04-03T01:24:37;5.38;;;2.95;;
3307;SDS011;1666;48.898;9.182;2023-04-03T01:27:10;4.65;;;2.58;;
3307;SDS011;1666;48.898;9.182;2023-04-03T01:29:41;5.00;;;3.42;;
3307;SDS011;1666;48.898;9.182;2023-04-03T01:32:14;4.63;;;2.72;;
3307;SDS011;1666;48.898;9.182;2023-04-03T01:34:44;4.05;;;2.65;;
3307;SDS011;1666;48.898;9.182;2023-04-03T01:37:14;5.57;;;3.03;;
3307;SDS011;1666;48.898;9.182;2023-04-03T01:39:43;3.78;;;2.70;;
3307;SDS011;1666;48.898;9.182;2023-04-03T01:42:13;4.93;;;2.83;;
3307;SDS011;1666;48.898;9.182;2023-04-03T01:44:43;5.57;;;2.75;;
3307;SDS011;1666;48.898;9.182;2023-04-03T01:47:16;3.92;;;2.65;;
3307;SDS011;1666;48.898;9.182;2023-04-03T01:49:46;5.25;;;2.95;;
3307;SDS011;1666;48.898;9.182;2023-04-03T01:52:16;5.03;;;2.80;;
3307;SDS011;1666;48.898;9.182;2023-04-03T01:54:46;5.03;;;3.00;;
3307;SDS011;1666;48.898;9.182;2023-04-03T01:57:16;3.92;;;2.92;;
3307;SDS011;1666;48.898;9.182;2023-04-03T01:59:46;4.68;;;2.97;;
3307;SDS011;1666;48.898;9.182;2023-04-03T02:02:20;3.85;;;2.92;;
3307;SDS011;1666;48.898;9.182;2023-04-03T02:04:50;3.67;;;3.00;;
3307;SDS011;1666;48.898;9.182;2023-04-03T02:07:21;3.60;;;2.85;;
3307;SDS011;1666;48.898;9.182;2023-04-03T02:09:51;4.85;;;2.80;;
3307;SDS011;1666;48.898;9.182;2023-04-03T02:12:21;3.22;;;2.70;;
3307;SDS011;1666;48.898;9.182;2023-04-03T02:14:51;3.50;;;2.90;;
3307;SDS011;1666;48.898;9.182;2023-04-03T02:17:24;5.38;;;3.25;;
3307;SDS011;1666;48.898;9.182;2023-04-03T02:19:54;5.40;;;3.17;;
3307;SDS011;1666;48.898;9.182;2023-04-03T02:22:24;3.65;;;2.67;;
3307;SDS011;1666;48.898;9.182;2023-04-03T02:24:54;5.03;;;2.80;;
3307;SDS011;1666;48.898;9.182;2023-04-03T02:27:24;5.55;;;2.95;;
3307;SDS011;1666;48.898;9.182;2023-04-03T02:29:54;3.47;;;2.58;;
3307;SDS011;1666;48.898;9.182;2023-04-03T02:32:26;4.30;;;3.22;;
3307;SDS011;1666;48.898;9.182;2023-04-03T02:34:56;3.88;;;3.20;;
3307;SDS011;1666;48.898;9.182;2023-04-03T02:37:26;4.47;;;2.72;;
3307;SDS011;1666;48.898;9.182;2023-04-03T02:39:56;5.00;;;2.63;;
3307;SDS011;1666;48.898;9.182;2023-04-03T02:42:26;3.33;;;2.47;;
3307;SDS011;1666;48.898;9.182;2023-04-03T02:44:56;3.15;;;2.58;;
3307;SDS011;1666;48.898;9.182;2023-04-03T02:47:29;3.38;;;2.22;;
3307;SDS011;1666;48.898;9.182;2023-04-03T02:49:59;7.20;;;2.55;;
3307;SDS011;1666;48.898;9.182;2023-04-03T02:52:29;3.75;;;2.47;;
3307;SDS011;1666;48.898;9.182;2023-04-03T02:54:59;4.75;;;2.92;;
3307;SDS011;1666;48.898;9.182;2023-04-03T02:57:28;4.78;;;2.60;;
3307;SDS011;1666;48.898;9.182;2023-04-03T02:59:59;2.55;;;2.33;;
3307;SDS011;1666;48.898;9.182;2023-04-03T03:02:32;3.70;;;2.25;;
3307;SDS011;1666;48.898;9.182;2023-04-03T03:05:02;3.80;;;2.72;;
3307;SDS011;1666;48.898;9.182;2023-04-03T03:07:32;4.00;;;2.25;;
3307;SDS011;1666;48.898;9.182;2023-04-03T03:10:03;3.45;;;2.42;;
3307;SDS011;1666;48.898;9.182;2023-04-03T03:12:33;3.35;;;2.70;;
3307;SDS011;1666;48.898;9.182;2023-04-03T03:15:04;4.60;;;2.67;;
3307;SDS011;1666;48.898;9.182;2023-04-03T03:17:37;2.70;;;2.20;;
3307;SDS011;1666;48.898;9.182;2023-04-03T03:20:07;3.28;;;2.35;;
3307;SDS011;1666;48.898;9.182;2023-04-03T03:22:38;4.82;;;2.80;;
3307;SDS011;1666;48.898;9.182;2023-04-03T03:25:08;3.85;;;2.22;;
3307;SDS011;1666;48.898;9.182;2023-04-03T03:27:38;4.68;;;2.35;;
3307;SDS011;1666;48.898;9.182;2023-04-03T03:30:08;3.55;;;2.40;;
3307;SDS011;1666;48.898;9.182;2023-04-03T03:32:41;4.00;;;2.75;;
3307;SDS011;1666;48.898;9.182;2023-04-03T03:35:12;3.72;;;2.80;;
3307;SDS011;1666;48.898;9.182;2023-04-03T03:37:42;5.63;;;2.92;;
3307;SDS011;1666;48.898;9.182;2023-04-03T03:40:12;3.92;;;2.50;;
3307;SDS011;1666;48.898;9.182;2023-04-03T03:42:43;4.15;;;2.90;;
3307;SDS011;1666;48.898;9.182;2023-04-03T03:45:13;3.38;;;2.53;;
3307;SDS011;1666;48.898;9.182;2023-04-03T03:47:46;3.42;;;2.30;;
3307;SDS011;1666;48.898;9.182;2023-04-03T03:50:15;4.68;;;2.55;;
3307;SDS011;1666;48.898;9.182;2023-04-03T03:52:45;5.22;;;2.28;;
3307;SDS011;1666;48.898;9.182;2023-04-03T03:55:15;3.22;;;2.55;;
3307;SDS011;1666;48.898;9.182;2023-04-03T03:57:45;3.33;;;2.42;;
3307;SDS011;1666;48.898;9.182;2023-04-03T04:00:15;3.63;;;2.70;;
3307;SDS011;1666;48.898;9.182;2023-04-03T04:02:48;3.22;;;2.50;;
3307;SDS011;1666;48.898;9.182;2023-04-03T04:05:19;5.78;;;2.22;;
3307;SDS011;1666;48.898;9.182;2023-04-03T04:07:49;4.35;;;2.63;;
3307;SDS011;1666;48.898;9.182;2023-04-03T04:10:19;4.05;;;2.47;;
3307;SDS011;1666;48.898;9.182;2023-04-03T04:12:48;3.75;;;2.45;;
3307;SDS011;1666;48.898;9.182;2023-04-03T04:15:18;6.25;;;2.60;;
3307;SDS011;1666;48.898;9.182;2023-04-03T04:17:52;4.65;;;3.10;;
3307;SDS011;1666;48.898;9.182;2023-04-03T04:20:22;6.10;;;2.92;;
3307;SDS011;1666;48.898;9.182;2023-04-03T04:22:52;6.20;;;3.30;;
3307;SDS011;1666;48.898;9.182;2023-04-03T04:25:22;3.40;;;2.42;;
3307;SDS011;1666;48.898;9.182;2023-04-03T04:27:52;2.90;;;2.38;;
3307;SDS011;1666;48.898;9.182;2023-04-03T04:30:22;4.90;;;2.60;;
3307;SDS011;1666;48.898;9.182;2023-04-03T04:32:55;8.25;;;2.63;;
3307;SDS011;1666;48.898;9.182;2023-04-03T04:35:25;4.38;;;2.40;;
3307;SDS011;1666;48.898;9.182;2023-04-03T04:37:55;4.47;;;2.85;;
3307;SDS011;1666;48.898;9.182;2023-04-03T04:40:25;4.25;;;2.65;;
3307;SDS011;1666;48.898;9.182;2023-04-03T04:42:55;4.18;;;2.70;;
3307;SDS011;1666;48.898;9.182;2023-04-03T04:45:24;4.97;;;2.70;;
3307;SDS011;1666;48.898;9.182;2023-04-03T04:47:57;4.05;;;2.75;;
3307;SDS011;1666;48.898;9.182;2023-04-03T04:50:27;4.68;;;2.90;;
3307;SDS011;1666;48.898;9.182;2023-04-03T04:52:57;4.60;;;2.70;;
3307;SDS011;1666;48.898;9.182;2023-04-03T04:55:27;4.85;;;2.65;;
3307;SDS011;1666;48.898;9.182;2023-04-03T04:57:57;3.45;;;2.58;;
3307;SDS011;1666;48.898;9.182;2023-04-03T05:00:26;3.15;;;2.40;;
3307;SDS011;1666;48.898;9.182;2023-04-03T05:02:59;4.93;;;2.50;;
3307;SDS011;1666;48.898;9.182;2023-04-03T05:05:29;5.47;;;2.80;;
3307;SDS011;1666;48.898;9.182;2023-04-03T05:07:59;4.80;;;2.40;;
3307;SDS011;1666;48.898;9.182;2023-04-03T05:10:29;4.53;;;2.50;;
3307;SDS011;1666;48.898;9.182;2023-04-03T05:12:59;3.67;;;2.65;;
3307;SDS011;1666;48.898;9.182;2023-04-03T05:15:29;4.57;;;2.50;;
3307;SDS011;1666;48.898;9.182;2023-04-03T05:18:02;4.43;;;2.47;;
3307;SDS011;1666;48.898;9.182;2023-04-03T05:20:32;3.72;;;2.80;;
3307;SDS011;1666;48.898;9.182;2023-04-03T05:23:03;6.10;;;2.70;;
3307;SDS011;1666;48.898;9.182;2023-04-03T05:25:33;3.83;;;2.47;;
3307;SDS011;1666;48.898;9.182;2023-04-03T05:28:04;4.53;;;2.53;;
3307;SDS011;1666;48.898;9.182;2023-04-03T05:30:34;4.60;;;2.60;;
3307;SDS011;1666;48.898;9.182;2023-04-03T05:33:06;4.93;;;2.70;;
3307;SDS011;1666;48.898;9.182;2023-04-03T05:35:37;5.40;;;2.45;;
3307;SDS011;1666;48.898;9.182;2023-04-03T05:38:08;2.63;;;2.10;;
3307;SDS011;1666;48.898;9.182;2023-04-03T05:40:38;3.40;;;2.50;;
3307;SDS011;1666;48.898;9.182;2023-04-03T05:43:08;4.43;;;2.72;;
3307;SDS011;1666;48.898;9.182;2023-04-03T05:45:38;3.20;;;2.28;;
3307;SDS011;1666;48.898;9.182;2023-04-03T05:48:14;3.67;;;2.55;;
3307;SDS011;1666;48.898;9.182;2023-04-03T05:50:44;3.55;;;2.70;;
3307;SDS011;1666;48.898;9.182;2023-04-03T05:53:15;4.63;;;2.83;;
3307;SDS011;1666;48.898;9.182;2023-04-03T05:55:50;2.80;;;2.17;;
3307;SDS011;1666;48.898;9.182;2023-04-03T05:58:20;5.03;;;3.03;;
3307;SDS011;1666;48.898;9.182;2023-04-03T06:00:50;3.83;;;2.65;;
3307;SDS011;1666;48.898;9.182;2023-04-03T06:03:22;6.82;;;2.90;;
3307;SDS011;1666;48.898;9.182;2023-04-03T06:05:53;4.70;;;3.08;;
3307;SDS011;1666;48.898;9.182;2023-04-03T06:08:23;2.63;;;2.30;;
3307;SDS011;1666;48.898;9.182;2023-04-03T06:10:53;3.22;;;2.33;;
3307;SDS011;1666;48.898;9.182;2023-04-03T06:13:23;4.40;;;2.80;;
3307;SDS011;1666;48.898;9.182;2023-04-03T06:15:53;7.28;;;2.90;;
3307;SDS011;1666;48.898;9.182;2023-04-03T06:18:25;4.85;;;2.67;;
3307;SDS011;1666;48.898;9.182;2023-04-03T06:20:55;5.45;;;2.60;;
3307;SDS011;1666;48.898;9.182;2023-04-03T06:23:25;4.80;;;2.80;;
3307;SDS011;1666;48.898;9.182;2023-04-03T06:25:55;4.57;;;2.50;;
3307;SDS011;1666;48.898;9.182;2023-04-03T06:28:24;5.22;;;2.88;;
3307;SDS011;1666;48.898;9.182;2023-04-03T06:30:54;3.38;;;2.58;;
3307;SDS011;1666;48.898;9.182;2023-04-03T06:33:27;6.35;;;2.60;;
3307;SDS011;1666;48.898;9.182;2023-04-03T06:35:57;4.57;;;2.65;;
3307;SDS011;1666;48.898;9.182;2023-04-03T06:38:28;9.35;;;2.60;;
3307;SDS011;1666;48.898;9.182;2023-04-03T06:40:58;4.03;;;2.70;;
3307;SDS011;1666;48.898;9.182;2023-04-03T06:43:28;6.82;;;2.72;;
3307;SDS011;1666;48.898;9.182;2023-04-03T06:46:00;6.95;;;2.90;;
3307;SDS011;1666;48.898;9.182;2023-04-03T06:48:32;4.15;;;3.30;;
3307;SDS011;1666;48.898;9.182;2023-04-03T06:51:03;4.53;;;3.05;;
3307;SDS011;1666;48.898;9.182;2023-04-03T06:53:33;6.93;;;2.92;;
3307;SDS011;1666;48.898;9.182;2023-04-03T06:56:03;8.32;;;3.40;;
3307;SDS011;1666;48.898;9.182;2023-04-03T06:58:33;6.47;;;3.50;;
3307;SDS011;1666;48.898;9.182;2023-04-03T07:01:04;6.50;;;3.25;;
3307;SDS011;1666;48.898;9.182;2023-04-03T07:03:36;6.38;;;3.30;;
3307;SDS011;1666;48.898;9.182;2023-04-03T07:06:06;6.57;;;3.08;;
3307;SDS011;1666;48.898;9.182;2023-04-03T07:08:39;4.30;;;3.15;;
3307;SDS011;1666;48.898;9.182;2023-04-03T07:11:10;9.20;;;3.70;;
3307;SDS011;1666;48.898;9.182;2023-04-03T07:13:41;4.97;;;3.53;;
3307;SDS011;1666;48.898;9.182;2023-04-03T07:16:11;6.53;;;3.95;;
3307;SDS011;1666;48.898;9.182;2023-04-03T07:18:43;6.63;;;3.40;;
3307;SDS011;1666;48.898;9.182;2023-04-03T07:21:13;4.97;;;3.15;;
3307;SDS011;1666;48.898;9.182;2023-04-03T07:23:43;4.88;;;3.10;;
3307;SDS011;1666;48.898;9.182;2023-04-03T07:26:14;6.72;;;3.20;;
3307;SDS011;1666;48.898;9.182;2023-04-03T07:28:44;8.20;;;3.60;;
3307;SDS011;1666;48.898;9.182;2023-04-03T07:31:15;5.72;;;3.00;;
3307;SDS011;1666;48.898;9.182;2023-04-03T07:33:48;6.13;;;3.28;;
3307;SDS011;1666;48.898;9.182;2023-04-03T07:36:20;6.43;;;3.33;;
3307;SDS011;1666;48.898;9.182;2023-04-03T07:38:50;6.38;;;3.22;;
3307;SDS011;1666;48.898;9.182;2023-04-03T07:41:20;6.22;;;3.10;;
3307;SDS011;1666;48.898;9.182;2023-04-03T07:43:50;7.55;;;3.17;;
3307;SDS011;1666;48.898;9.182;2023-04-03T07:46:21;7.05;;;3.47;;
3307;SDS011;1666;48.898;9.182;2023-04-03T07:48:54;4.88;;;3.80;;
3307;SDS011;1666;48.898;9.182;2023-04-03T07:51:24;4.72;;;3.28;;
3307;SDS011;1666;48.898;9.182;2023-04-03T07:53:56;7.57;;;3.33;;
3307;SDS011;1666;48.898;9.182;2023-04-03T07:56:26;6.43;;;3.60;;
3307;SDS011;1666;48.898;9.182;2023-04-03T07:58:56;4.55;;;3.20;;
3307;SDS011;1666;48.898;9.182;2023-04-03T08:01:25;5.43;;;3.13;;
3307;SDS011;1666;48.898;9.182;2023-04-03T08:04:01;4.97;;;3.25;;
3307;SDS011;1666;48.898;9.182;2023-04-03T08:06:32;7.78;;;4.22;;
3307;SDS011;1666;48.898;9.182;2023-04-03T08:09:12;5.57;;;2.85;;
3307;SDS011;1666;48.898;9.182;2023-04-03T08:11:43;5.85;;;3.22;;
3307;SDS011;1666;48.898;9.182;2023-04-03T08:14:13;5.20;;;3.35;;
3307;SDS011;1666;48.898;9.182;2023-04-03T08:16:45;10.23;;;3.40;;
3307;SDS011;1666;48.898;9.182;2023-04-03T08:19:19;3.70;;;2.78;;
3307;SDS011;1666;48.898;9.182;2023-04-03T08:21:52;5.95;;;3.00;;
3307;SDS011;1666;48.898;9.182;2023-04-03T08:24:23;6.28;;;3.22;;
3307;SDS011;1666;48.898;9.182;2023-04-03T08:26:53;4.22;;;2.83;;
3307;SDS011;1666;48.898;9.182;2023-04-03T08:29:23;6.30;;;3.88;;
3307;SDS011;1666;48.898;9.182;2023-04-03T08:31:53;3.70;;;2.75;;
3307;SDS011;1666;48.898;9.182;2023-04-03T08:34:26;6.18;;;3.20;;
3307;SDS011;1666;48.898;9.182;2023-04-03T08:36:56;7.43;;;3.47;;
3307;SDS011;1666;48.898;9.182;2023-04-03T08:39:26;8.75;;;3.15;;
3307;SDS011;1666;48.898;9.182;2023-04-03T08:41:57;5.85;;;3.17;;
3307;SDS011;1666;48.898;9.182;2023-04-03T08:44:31;6.75;;;3.80;;
3307;SDS011;1666;48.898;9.182;2023-04-03T08:47:11;6.00;;;2.70;;
3307;SDS011;1666;48.898;9.182;2023-04-03T08:49:50;7.55;;;2.90;;
3307;SDS011;1666;48.898;9.182;2023-04-03T08:52:23;5.80;;;2.50;;
3307;SDS011;1666;48.898;9.182;2023-04-03T08:55:03;7.88;;;3.25;;
3307;SDS011;1666;48.898;9.182;2023-04-03T08:57:34;5.15;;;3.50;;
3307;SDS011;1666;48.898;9.182;2023-04-03T09:00:16;3.25;;;2.88;;
3307;SDS011;1666;48.898;9.182;2023-04-03T09:02:48;6.35;;;3.22;;
3307;SDS011;1666;48.898;9.182;2023-04-03T09:05:27;6.60;;;3.03;;
3307;SDS011;1666;48.898;9.182;2023-04-03T09:08:07;4.85;;;2.92;;
3307;SDS011;1666;48.898;9.182;2023-04-03T09:10:43;6.53;;;2.85;;
3307;SDS011;1666;48.898;9.182;2023-04-03T09:13:18;4.30;;;2.70;;
3307;SDS011;1666;48.898;9.182;2023-04-03T09:15:55;6.22;;;3.22;;
3307;SDS011;1666;48.898;9.182;2023-04-03T09:18:26;4.85;;;2.67;;
3307;SDS011;1666;48.898;9.182;2023-04-03T09:21:04;6.22;;;2.70;;
3307;SDS011;1666;48.898;9.182;2023-04-03T09:23:43;3.92;;;2.53;;
3307;SDS011;1666;48.898;9.182;2023-04-03T09:26:16;6.28;;;2.90;;
3307;SDS011;1666;48.898;9.182;2023-04-03T09:28:48;5.03;;;2.43;;
3307;SDS011;1666;48.898;9.182;2023-04-03T09:31:20;6.10;;;2.20;;
3307;SDS011;1666;48.898;9.182;2023-04-03T09:33:57;6.50;;;2.50;;
3307;SDS011;1666;48.898;9.182;2023-04-03T09:36:43;4.05;;;2.90;;
3307;SDS011;1666;48.898;9.182;2023-04-03T09:39:15;4.57;;;2.83;;
3307;SDS011;1666;48.898;9.182;2023-04-03T09:41:57;4.55;;;2.60;;
3307;SDS011;1666;48.898;9.182;2023-04-03T09:44:30;3.00;;;1.92;;
3307;SDS011;1666;48.898;9.182;2023-04-03T09:47:16;3.47;;;1.95;;
3307;SDS011;1666;48.898;9.182;2023-04-03T09:49:47;4.93;;;2.50;;
3307;SDS011;1666;48.898;9.182;2023-04-03T09:52:23;3.22;;;2.38;;
3307;SDS011;1666;48.898;9.182;2023-04-03T09:54:55;4.65;;;1.98;;
3307;SDS011;1666;48.898;9.182;2023-04-03T09:57:36;3.45;;;2.45;;
3307;SDS011;1666;48.898;9.182;2023-04-03T10:00:10;1.98;;;1.75;;
3307;SDS011;1666;48.898;9.182;2023-04-03T10:02:51;5.05;;;2.13;;
3307;SDS011;1666;48.898;9.182;2023-04-03T10:05:28;3.55;;;1.75;;
3307;SDS011;1666;48.898;9.182;2023-04-03T10:08:11;5.22;;;2.28;;
3307;SDS011;1666;48.898;9.182;2023-04-03T10:11:05;5.13;;;1.95;;
3307;SDS011;1666;48.898;9.182;2023-04-03T10:13:49;3.67;;;1.92;;
3307;SDS011;1666;48.898;9.182;2023-04-03T10:16:21;4.32;;;1.85;;
3307;SDS011;1666;48.898;9.182;2023-04-03T10:21:57;3.67;;;2.10;;
3307;SDS011;1666;48.898;9.182;2023-04-03T10:24:36;3.28;;;1.83;;
3307;SDS011;1666;48.898;9.182;2023-04-03T10:27:13;2.95;;;2.10;;
3307;SDS011;1666;48.898;9.182;2023-04-03T10:29:53;2.42;;;1.80;;
3307;SDS011;1666;48.898;9.182;2023-04-03T10:32:35;5.38;;;1.70;;
3307;SDS011;1666;48.898;9.182;2023-04-03T10:35:13;2.60;;;1.63;;
3307;SDS011;1666;48.898;9.182;2023-04-03T10:37:52;4.30;;;1.80;;
3307;SDS011;1666;48.898;9.182;2023-04-03T10:40:33;3.22;;;1.80;;
3307;SDS011;1666;48.898;9.182;2023-04-03T10:43:13;2.40;;;1.40;;
3307;SDS011;1666;48.898;9.182;2023-04-03T10:45:52;5.68;;;2.22;;
3307;SDS011;1666;48.898;9.182;2023-04-03T10:51:22;3.80;;;1.75;;
3307;SDS011;1666;48.898;9.182;2023-04-03T10:53:56;2.88;;;1.70;;
3307;SDS011;1666;48.898;9.182;2023-04-03T10:56:34;1.88;;;1.52;;
3307;SDS011;1666;48.898;9.182;2023-04-03T10:59:13;2.25;;;1.33;;
3307;SDS011;1666;48.898;9.182;2023-04-03T11:01:51;4.57;;;1.35;;
3307;SDS011;1666;48.898;9.182;2023-04-03T11:04:25;3.70;;;1.70;;
3307;SDS011;1666;48.898;9.182;2023-04-03T11:07:00;3.42;;;1.88;;
3307;SDS011;1666;48.898;9.182;2023-04-03T11:09:34;2.97;;;1.30;;
3307;SDS011;1666;48.898;9.182;2023-04-03T11:12:11;2.17;;;1.40;;
3307;SDS011;1666;48.898;9.182;2023-04-03T11:14:45;2.78;;;1.90;;
3307;SDS011;1666;48.898;9.182;2023-04-03T11:17:22;3.88;;;2.03;;
3307;SDS011;1666;48.898;9.182;2023-04-03T11:19:59;3.63;;;1.38;;
3307;SDS011;1666;48.898;9.182;2023-04-03T11:22:34;2.58;;;1.80;;
3307;SDS011;1666;48.898;9.182;2023-04-03T11:25:14;2.45;;;1.55;;
3307;SDS011;1666;48.898;9.182;2023-04-03T11:27:53;6.40;;;2.10;;
3307;SDS011;1666;48.898;9.182;2023-04-03T11:30:30;4.05;;;1.60;;
3307;SDS011;1666;48.898;9.182;2023-04-03T11:33:19;2.97;;;2.00;;
3307;SDS011;1666;48.898;9.182;2023-04-03T11:35:57;3.80;;;1.80;;
3307;SDS011;1666;48.898;9.182;2023-04-03T11:38:44;4.35;;;1.70;;
3307;SDS011;1666;48.898;9.182;2023-04-03T11:41:23;3.58;;;1.95;;
3307;SDS011;1666;48.898;9.182;2023-04-03T11:43:59;2.78;;;1.73;;
3307;SDS011;1666;48.898;9.182;2023-04-03T11:55:44;3.13;;;1.75;;
3307;SDS011;1666;48.898;9.182;2023-04-03T11:58:22;3.13;;;1.90;;
3307;SDS011;1666;48.898;9.182;2023-04-03T12:01:06;6.05;;;2.15;;
3307;SDS011;1666;48.898;9.182;2023-04-03T12:09:35;3.78;;;1.92;;
3307;SDS011;1666;48.898;9.182;2023-04-03T12:12:30;4.55;;;2.03;;
3307;SDS011;1666;48.898;9.182;2023-04-03T12:17:56;3.45;;;1.98;;
3307;SDS011;1666;48.898;9.182;2023-04-03T12:23:25;2.35;;;1.92;;
3307;SDS011;1666;48.898;9.182;2023-04-03T12:26:05;3.95;;;1.63;;
3307;SDS011;1666;48.898;9.182;2023-04-03T12:28:50;3.53;;;2.13;;
3307;SDS011;1666;48.898;9.182;2023-04-03T12:31:22;6.03;;;2.95;;
3307;SDS011;1666;48.898;9.182;2023-04-03T12:34:15;3.25;;;2.10;;
3307;SDS011;1666;48.898;9.182;2023-04-03T12:36:58;2.97;;;1.70;;
3307;SDS011;1666;48.898;9.182;2023-04-03T12:39:41;2.60;;;1.70;;
3307;SDS011;1666;48.898;9.182;2023-04-03T12:42:22;3.47;;;1.90;;
3307;SDS011;1666;48.898;9.182;2023-04-03T12:45:12;6.30;;;2.00;;
3307;SDS011;1666;48.898;9.182;2023-04-03T12:47:48;2.80;;;1.85;;
3307;SDS011;1666;48.898;9.182;2023-04-03T12:50:23;6.35;;;2.30;;
3307;SDS011;1666;48.898;9.182;2023-04-03T12:52:57;3.58;;;2.08;;
3307;SDS011;1666;48.898;9.182;2023-04-03T12:55:30;2.45;;;1.40;;
3307;SDS011;1666;48.898;9.182;2023-04-03T12:58:12;3.40;;;1.70;;
3307;SDS011;1666;48.898;9.182;2023-04-03T13:00:44;3.05;;;1.60;;
3307;SDS011;1666;48.898;9.182;2023-04-03T13:03:21;5.50;;;1.65;;
3307;SDS011;1666;48.898;9.182;2023-04-03T13:05:57;4.30;;;1.73;;
3307;SDS011;1666;48.898;9.182;2023-04-03T13:08:29;3.03;;;1.40;;
3307;SDS011;1666;48.898;9.182;2023-04-03T13:11:00;4.18;;;1.95;;
3307;SDS011;1666;48.898;9.182;2023-04-03T13:13:33;5.75;;;1.75;;
3307;SDS011;1666;48.898;9.182;2023-04-03T13:16:07;3.13;;;1.55;;
3307;SDS011;1666;48.898;9.182;2023-04-03T13:18:40;3.08;;;1.88;;
3307;SDS011;1666;48.898;9.182;2023-04-03T13:21:15;3.38;;;2.03;;
3307;SDS011;1666;48.898;9.182;2023-04-03T13:23:50;3.83;;;2.40;;
3307;SDS011;1666;48.898;9.182;2023-04-03T13:26:37;4.78;;;2.65;;
3307;SDS011;1666;48.898;9.182;2023-04-03T13:29:17;3.65;;;2.30;;
3307;SDS011;1666;48.898;9.182;2023-04-03T13:31:57;2.90;;;2.10;;
3307;SDS011;1666;48.898;9.182;2023-04-03T13:34:32;3.58;;;2.10;;
3307;SDS011;1666;48.898;9.182;2023-04-03T13:37:11;3.17;;;1.70;;
3307;SDS011;1666;48.898;9.182;2023-04-03T13:39:59;3.83;;;2.15;;
3307;SDS011;1666;48.898;9.182;2023-04-03T13:42:39;3.63;;;1.98;;
3307;SDS011;1666;48.898;9.182;2023-04-03T13:45:16;2.97;;;1.70;;
3307;SDS011;1666;48.898;9.182;2023-04-03T13:47:51;5.10;;;1.70;;
3307;SDS011;1666;48.898;9.182;2023-04-03T13:50:23;3.45;;;2.03;;
3307;SDS011;1666;48.898;9.182;2023-04-03T13:52:59;3.70;;;1.90;;
3307;SDS011;1666;48.898;9.182;2023-04-03T13:55:32;3.22;;;2.00;;
3307;SDS011;1666;48.898;9.182;2023-04-03T13:58:27;3.80;;;1.80;;
3307;SDS011;1666;48.898;9.182;2023-04-03T14:01:00;5.47;;;2.00;;
3307;SDS011;1666;48.898;9.182;2023-04-03T14:03:39;3.85;;;1.77;;
3307;SDS011;1666;48.898;9.182;2023-04-03T14:06:12;3.90;;;1.80;;
3307;SDS011;1666;48.898;9.182;2023-04-03T14:08:43;4.82;;;1.65;;
3307;SDS011;1666;48.898;9.182;2023-04-03T14:11:16;4.25;;;1.80;;
3307;SDS011;1666;48.898;9.182;2023-04-03T14:13:51;4.10;;;2.22;;
3307;SDS011;1666;48.898;9.182;2023-04-03T14:16:23;3.30;;;1.90;;
3307;SDS011;1666;48.898;9.182;2023-04-03T14:18:56;4.90;;;1.80;;
3307;SDS011;1666;48.898;9.182;2023-04-03T14:21:26;3.15;;;2.10;;
3307;SDS011;1666;48.898;9.182;2023-04-03T14:23:56;4.20;;;1.80;;
3307;SDS011;1666;48.898;9.182;2023-04-03T14:26:28;4.75;;;2.40;;
3307;SDS011;1666;48.898;9.182;2023-04-03T14:29:01;5.22;;;1.98;;
3307;SDS011;1666;48.898;9.182;2023-04-03T14:31:31;2.92;;;1.80;;
3307;SDS011;1666;48.898;9.182;2023-04-03T14:34:01;2.03;;;1.50;;
3307;SDS011;1666;48.898;9.182;2023-04-03T14:36:31;4.55;;;1.85;;
3307;SDS011;1666;48.898;9.182;2023-04-03T14:39:02;3.28;;;1.83;;
3307;SDS011;1666;48.898;9.182;2023-04-03T14:41:34;3.95;;;1.88;;
3307;SDS011;1666;48.898;9.182;2023-04-03T14:44:07;3.65;;;1.58;;
3307;SDS011;1666;48.898;9.182;2023-04-03T14:46:37;2.83;;;1.88;;
3307;SDS011;1666;48.898;9.182;2023-04-03T14:49:14;3.42;;;2.00;;
3307;SDS011;1666;48.898;9.182;2023-04-03T14:51:47;4.03;;;2.00;;
3307;SDS011;1666;48.898;9.182;2023-04-03T14:54:18;2.80;;;1.70;;
3307;SDS011;1666;48.898;9.182;2023-04-03T14:56:52;2.75;;;1.85;;
3307;SDS011;1666;48.898;9.182;2023-04-03T14:59:25;5.03;;;2.20;;
3307;SDS011;1666;48.898;9.182;2023-04-03T15:01:56;4.68;;;2.10;;
3307;SDS011;1666;48.898;9.182;2023-04-03T15:04:26;4.55;;;1.70;;
3307;SDS011;1666;48.898;9.182;2023-04-03T15:06:56;3.35;;;2.00;;
3307;SDS011;1666;48.898;9.182;2023-04-03T15:09:26;6.60;;;1.80;;
3307;SDS011;1666;48.898;9.182;2023-04-03T15:11:57;4.78;;;1.98;;
3307;SDS011;1666;48.898;9.182;2023-04-03T15:14:29;2.20;;;1.50;;
3307;SDS011;1666;48.898;9.182;2023-04-03T15:17:16;2.70;;;2.03;;
3307;SDS011;1666;48.898;9.182;2023-04-03T15:19:48;4.63;;;2.08;;
3307;SDS011;1666;48.898;9.182;2023-04-03T15:22:19;3.47;;;2.00;;
3307;SDS011;1666;48.898;9.182;2023-04-03T15:24:49;4.15;;;2.30;;
3307;SDS011;1666;48.898;9.182;2023-04-03T15:27:19;3.45;;;1.63;;
3307;SDS011;1666;48.898;9.182;2023-04-03T15:29:51;3.38;;;1.85;;
3307;SDS011;1666;48.898;9.182;2023-04-03T15:32:21;3.70;;;2.22;;
3307;SDS011;1666;48.898;9.182;2023-04-03T15:34:51;3.55;;;2.10;;
3307;SDS011;1666;48.898;9.182;2023-04-03T15:37:22;2.58;;;1.88;;
3307;SDS011;1666;48.898;9.182;2023-04-03T15:39:52;4.20;;;2.20;;
3307;SDS011;1666;48.898;9.182;2023-04-03T15:42:22;2.50;;;1.75;;
3307;SDS011;1666;48.898;9.182;2023-04-03T15:44:54;2.50;;;1.60;;
3307;SDS011;1666;48.898;9.182;2023-04-03T15:47:25;3.92;;;1.98;;
3307;SDS011;1666;48.898;9.182;2023-04-03T15:49:56;4.68;;;2.35;;
3307;SDS011;1666;48.898;9.182;2023-04-03T15:52:26;3.85;;;1.98;;
3307;SDS011;1666;48.898;9.182;2023-04-03T15:54:55;2.70;;;1.95;;
3307;SDS011;1666;48.898;9.182;2023-04-03T15:57:27;3.35;;;1.98;;
3307;SDS011;1666;48.898;9.182;2023-04-03T16:00:19;2.92;;;1.90;;
3307;SDS011;1666;48.898;9.182;2023-04-03T16:02:51;3.33;;;1.98;;
3307;SDS011;1666;48.898;9.182;2023-04-03T16:05:24;4.87;;;1.90;;
3307;SDS011;1666;48.898;9.182;2023-04-03T16:07:54;3.55;;;1.70;;
3307;SDS011;1666;48.898;9.182;2023-04-03T16:10:24;3.45;;;2.00;;
3307;SDS011;1666;48.898;9.182;2023-04-03T16:12:53;4.38;;;2.33;;
3307;SDS011;1666;48.898;9.182;2023-04-03T16:15:27;3.67;;;2.00;;
3307;SDS011;1666;48.898;9.182;2023-04-03T16:17:58;3.55;;;2.33;;
3307;SDS011;1666;48.898;9.182;2023-04-03T16:20:29;3.72;;;1.98;;